createdAt,value
2018-07-15T00:01:17.667Z,7.40
2018-07-15T00:03:47.200Z,7.37
2018-07-15T00:06:16.288Z,7.40
2018-07-15T00:08:45.450Z,7.23
2018-07-15T00:11:15.200Z,7.70
2018-07-15T00:13:44.948Z,8.83
2018-07-15T00:16:16.716Z,7.77
2018-07-15T00:18:46.514Z,7.40
2018-07-15T00:21:15.496Z,7.90
2018-07-15T00:23:44.512Z,7.07
2018-07-15T00:26:13.376Z,7.77
2018-07-15T00:28:42.744Z,7.43
2018-07-15T00:31:14.462Z,8.30
2018-07-15T00:33:48.542Z,8.53
2018-07-15T00:36:17.728Z,7.97
2018-07-15T00:38:52.934Z,7.70
2018-07-15T00:41:22.332Z,8.23
2018-07-15T00:43:51.440Z,8.20
2018-07-15T00:46:21.266Z,7.90
2018-07-15T00:48:50.407Z,7.70
2018-07-15T00:51:19.348Z,8.17
2018-07-15T00:53:51.317Z,7.63
2018-07-15T00:56:21.650Z,8.10
2018-07-15T00:58:50.831Z,7.53
2018-07-15T01:01:20.229Z,7.30
2018-07-15T01:03:49.284Z,7.57
2018-07-15T01:06:19.540Z,8.00
2018-07-15T01:08:48.992Z,7.63
2018-07-15T01:11:19.593Z,10.23
2018-07-15T01:13:50.717Z,6.87
2018-07-15T01:16:19.776Z,8.13
2018-07-15T01:18:53.957Z,7.40
2018-07-15T01:21:23.694Z,7.67
2018-07-15T01:23:52.588Z,7.63
2018-07-15T01:26:22.160Z,7.57
2018-07-15T01:28:53.283Z,7.50
2018-07-15T01:31:22.679Z,8.13
2018-07-15T01:33:51.976Z,7.97
2018-07-15T01:36:21.091Z,8.40
2018-07-15T01:38:50.296Z,7.97
2018-07-15T01:41:19.170Z,8.10
2018-07-15T01:43:48.819Z,7.63
2018-07-15T01:46:17.987Z,7.83
2018-07-15T01:48:47.403Z,7.60
2018-07-15T01:51:16.308Z,7.57
2018-07-15T01:53:46.826Z,7.67
2018-07-15T01:56:16.079Z,7.63
2018-07-15T01:58:45.814Z,8.40
2018-07-15T02:01:15.056Z,7.50
2018-07-15T02:03:44.477Z,7.60
2018-07-15T02:06:13.454Z,7.93
2018-07-15T02:08:43.170Z,7.77
2018-07-15T02:11:12.346Z,8.10
2018-07-15T02:13:42.275Z,8.17
2018-07-15T02:16:14.387Z,7.20
2018-07-15T02:18:44.295Z,7.60
2018-07-15T02:21:13.097Z,7.43
2018-07-15T02:23:42.260Z,7.27
2018-07-15T02:26:11.278Z,7.77
2018-07-15T02:28:40.076Z,7.53
2018-07-15T02:31:10.132Z,8.17
2018-07-15T02:33:42.513Z,8.00
2018-07-15T02:36:12.948Z,7.70
2018-07-15T02:38:42.692Z,7.77
2018-07-15T02:41:11.937Z,8.33
2018-07-15T02:43:41.745Z,8.00
2018-07-15T02:46:10.936Z,8.07
2018-07-15T02:48:41.074Z,7.90
2018-07-15T02:51:12.645Z,7.70
2018-07-15T02:53:42.620Z,8.07
2018-07-15T02:56:11.824Z,8.07
2018-07-15T02:58:41.960Z,8.13
2018-07-15T03:01:15.348Z,8.83
2018-07-15T03:03:44.847Z,8.30
2018-07-15T03:06:13.887Z,8.47
2018-07-15T03:08:43.564Z,7.73
2018-07-15T03:11:12.623Z,7.47
2018-07-15T03:13:42.247Z,8.10
2018-07-15T03:16:11.514Z,8.13
2018-07-15T03:18:41.156Z,8.13
2018-07-15T03:21:10.594Z,8.60
2018-07-15T03:23:40.463Z,8.43
2018-07-15T03:26:09.960Z,8.40
2018-07-15T03:28:39.304Z,7.93
2018-07-15T03:31:08.888Z,8.17
2018-07-15T03:33:38.168Z,7.93
2018-07-15T03:36:07.406Z,8.43
2018-07-15T03:38:36.628Z,8.40
2018-07-15T03:41:05.971Z,8.20
2018-07-15T03:43:35.446Z,8.10
2018-07-15T03:46:05.040Z,9.33
2018-07-15T03:48:37.369Z,8.03
2018-07-15T03:51:06.923Z,8.63
2018-07-15T03:53:36.753Z,7.90
2018-07-15T03:56:06.672Z,9.07
2018-07-15T03:58:35.311Z,8.30
2018-07-15T04:01:04.273Z,8.30
2018-07-15T04:03:34.600Z,8.07
2018-07-15T04:06:07.621Z,8.30
2018-07-15T04:08:38.298Z,9.10
2018-07-15T04:11:07.338Z,8.17
2018-07-15T04:13:36.408Z,8.90
2018-07-15T04:16:05.289Z,9.17
2018-07-15T04:18:34.047Z,8.20
2018-07-15T04:21:02.865Z,8.80
2018-07-15T04:23:33.084Z,8.30
2018-07-15T04:26:06.188Z,9.03
2018-07-15T04:28:39.024Z,8.27
2018-07-15T04:31:08.983Z,8.47
2018-07-15T04:33:38.316Z,8.73
2018-07-15T04:36:07.854Z,9.40
2018-07-15T04:38:37.212Z,8.47
2018-07-15T04:41:06.392Z,9.00
2018-07-15T04:43:35.727Z,8.30
2018-07-15T04:46:06.752Z,9.17
2018-07-15T04:48:37.610Z,8.77
2018-07-15T04:51:07.481Z,8.47
2018-07-15T04:53:36.249Z,8.80
2018-07-15T04:56:05.064Z,8.37
2018-07-15T04:58:34.228Z,8.57
2018-07-15T05:01:04.683Z,7.50
2018-07-15T05:03:39.191Z,8.20
2018-07-15T05:06:08.131Z,9.27
2018-07-15T05:08:37.572Z,9.10
2018-07-15T05:11:06.520Z,8.73
2018-07-15T05:13:35.355Z,8.73
2018-07-15T05:16:05.459Z,8.57
2018-07-15T05:18:37.003Z,7.60
2018-07-15T05:21:10.177Z,9.00
2018-07-15T05:23:39.269Z,8.73
2018-07-15T05:26:09.151Z,8.60
2018-07-15T05:28:38.010Z,8.80
2018-07-15T05:31:06.761Z,9.23
2018-07-15T05:33:35.843Z,8.70
2018-07-15T05:36:06.764Z,9.30
2018-07-15T05:38:38.077Z,8.23
2018-07-15T05:41:06.912Z,8.27
2018-07-15T05:43:36.235Z,8.43
2018-07-15T05:46:05.429Z,8.53
2018-07-15T05:48:35.369Z,9.17
2018-07-15T05:51:04.668Z,8.33
2018-07-15T05:53:34.725Z,8.87
2018-07-15T05:56:03.790Z,9.13
2018-07-15T05:58:33.479Z,9.50
2018-07-15T06:01:02.793Z,8.80
2018-07-15T06:03:31.609Z,9.13
2018-07-15T06:06:01.022Z,8.43
2018-07-15T06:08:31.713Z,8.93
2018-07-15T06:11:04.164Z,8.53
2018-07-15T06:13:35.140Z,8.57
2018-07-15T06:16:04.220Z,8.40
2018-07-15T06:18:33.024Z,8.10
2018-07-15T06:21:03.233Z,8.17
2018-07-15T06:23:32.077Z,8.87
2018-07-15T06:26:01.288Z,8.70
2018-07-15T06:28:31.944Z,9.53
2018-07-15T06:31:01.500Z,7.83
2018-07-15T06:33:30.434Z,8.80
2018-07-15T06:36:00.547Z,8.60
2018-07-15T06:38:30.899Z,8.27
2018-07-15T06:40:59.668Z,8.77
2018-07-15T06:43:31.258Z,8.27
2018-07-15T06:46:03.915Z,8.10
2018-07-15T06:48:38.207Z,8.93
2018-07-15T06:51:07.886Z,9.77
2018-07-15T06:53:36.954Z,9.30
2018-07-15T06:56:05.796Z,9.77
2018-07-15T06:58:35.016Z,8.67
2018-07-15T07:01:04.757Z,8.30
2018-07-15T07:03:35.903Z,9.03
2018-07-15T07:06:07.514Z,10.13
2018-07-15T07:08:36.907Z,8.47
2018-07-15T07:11:05.861Z,8.80
2018-07-15T07:13:35.847Z,9.70
2018-07-15T07:16:05.162Z,9.10
2018-07-15T07:18:34.510Z,10.80
2018-07-15T07:21:08.027Z,9.77
2018-07-15T07:23:39.048Z,9.33
2018-07-15T07:26:09.956Z,8.70
2018-07-15T07:28:39.469Z,8.20
2018-07-15T07:31:08.990Z,9.18
2018-07-15T07:33:42.494Z,8.60
2018-07-15T07:36:11.347Z,8.30
2018-07-15T07:38:41.440Z,8.98
2018-07-15T07:41:11.201Z,9.25
2018-07-15T07:43:41.892Z,8.85
2018-07-15T07:46:11.873Z,8.03
2018-07-15T07:48:41.928Z,9.00
2018-07-15T07:51:11.189Z,8.93
2018-07-15T07:53:40.380Z,8.75
2018-07-15T07:56:09.213Z,9.03
2018-07-15T07:58:40.052Z,9.08
2018-07-15T08:01:12.235Z,9.33
2018-07-15T08:03:42.695Z,9.20
2018-07-15T08:06:13.416Z,8.80
2018-07-15T08:08:42.651Z,8.93
2018-07-15T08:11:12.058Z,8.85
2018-07-15T08:13:42.250Z,8.35
2018-07-15T08:16:12.624Z,8.25
2018-07-15T08:18:42.597Z,8.00
2018-07-15T08:21:11.833Z,8.10
2018-07-15T08:23:41.332Z,7.80
2018-07-15T08:26:10.208Z,8.13
2018-07-15T08:28:39.256Z,8.33
2018-07-15T08:31:15.056Z,7.15
2018-07-15T08:33:44.154Z,7.35
2018-07-15T08:36:15.671Z,7.42
2018-07-15T08:38:46.321Z,7.47
2018-07-15T08:41:15.655Z,6.97
2018-07-15T08:43:45.284Z,7.55
2018-07-15T08:46:14.590Z,6.58
2018-07-15T08:48:43.837Z,7.12
2018-07-15T08:51:12.891Z,6.58
2018-07-15T08:53:45.783Z,6.45
2018-07-15T08:56:18.235Z,6.20
2018-07-15T08:58:48.801Z,6.70
2018-07-15T09:01:20.324Z,6.30
2018-07-15T09:03:49.765Z,6.80
2018-07-15T09:06:19.814Z,6.58
2018-07-15T09:08:50.532Z,6.25
2018-07-15T09:11:20.023Z,6.42
2018-07-15T09:13:49.703Z,6.12
2018-07-15T09:16:23.699Z,5.47
2018-07-15T09:18:56.596Z,5.80
2018-07-15T09:21:27.402Z,5.33
2018-07-15T09:23:56.318Z,5.67
2018-07-15T09:26:25.317Z,6.17
2018-07-15T09:28:55.363Z,6.08
2018-07-15T09:31:24.536Z,4.92
2018-07-15T09:33:53.764Z,5.05
2018-07-15T09:36:25.201Z,6.37
2018-07-15T09:38:57.794Z,4.80
2018-07-15T09:41:28.842Z,4.70
2018-07-15T09:43:57.876Z,5.10
2018-07-15T09:46:26.737Z,4.30
2018-07-15T09:48:55.913Z,5.22
2018-07-15T09:51:25.445Z,4.55
2018-07-15T09:53:55.016Z,4.87
2018-07-15T09:56:25.775Z,4.58
2018-07-15T09:58:54.916Z,4.95
2018-07-15T10:01:24.009Z,4.85
2018-07-15T10:03:53.363Z,4.30
2018-07-15T10:06:22.928Z,4.90
2018-07-15T10:08:53.161Z,5.42
2018-07-15T10:11:23.910Z,4.83
2018-07-15T10:13:52.778Z,5.10
2018-07-15T10:16:22.005Z,4.67
2018-07-15T10:18:50.946Z,4.60
2018-07-15T10:21:19.543Z,4.62
2018-07-15T10:23:51.856Z,4.60
2018-07-15T10:26:21.731Z,4.85
2018-07-15T10:28:51.958Z,4.58
2018-07-15T10:31:20.955Z,4.80
2018-07-15T10:33:50.869Z,4.87
2018-07-15T10:36:19.703Z,4.50
2018-07-15T10:38:48.986Z,4.50
2018-07-15T10:41:20.879Z,4.50
2018-07-15T10:43:51.647Z,4.90
2018-07-15T10:46:20.600Z,4.90
2018-07-15T10:48:49.849Z,4.45
2018-07-15T10:51:19.790Z,4.40
2018-07-15T10:53:48.839Z,5.55
2018-07-15T10:56:18.782Z,4.72
2018-07-15T10:58:49.444Z,4.60
2018-07-15T11:01:18.498Z,4.50
2018-07-15T11:03:47.416Z,4.65
2018-07-15T11:06:16.635Z,4.40
2018-07-15T11:08:45.576Z,4.85
2018-07-15T11:11:16.396Z,4.55
2018-07-15T11:13:46.316Z,4.45
2018-07-15T11:16:16.904Z,3.60
2018-07-15T11:18:47.599Z,4.00
2018-07-15T11:21:16.743Z,4.05
2018-07-15T11:23:46.146Z,4.33
2018-07-15T11:26:15.051Z,4.10
2018-07-15T11:28:44.447Z,4.30
2018-07-15T11:31:14.086Z,4.47
2018-07-15T11:33:43.484Z,4.25
2018-07-15T11:36:12.517Z,4.53
2018-07-15T11:38:45.725Z,4.50
2018-07-15T11:41:14.651Z,4.75
2018-07-15T11:43:43.505Z,4.72
2018-07-15T11:46:13.533Z,4.20
2018-07-15T11:48:47.881Z,4.55
2018-07-15T11:51:16.983Z,4.42
2018-07-15T11:53:47.174Z,4.17
2018-07-15T11:56:16.676Z,4.37
2018-07-15T11:58:45.912Z,4.53
2018-07-15T12:01:14.731Z,4.92
2018-07-15T12:03:43.723Z,4.30
2018-07-15T12:06:16.261Z,4.62
2018-07-15T12:08:47.431Z,3.90
2018-07-15T12:11:16.503Z,4.28
2018-07-15T12:13:45.330Z,4.47
2018-07-15T12:16:14.716Z,4.40
2018-07-15T12:18:44.338Z,4.40
2018-07-15T12:21:13.847Z,4.33
2018-07-15T12:23:44.101Z,4.45
2018-07-15T12:26:16.827Z,4.53
2018-07-15T12:28:46.002Z,5.00
2018-07-15T12:31:15.216Z,4.58
2018-07-15T12:33:44.028Z,4.28
2018-07-15T12:36:13.456Z,4.58
2018-07-15T12:38:42.550Z,4.62
2018-07-15T12:41:11.833Z,4.72
2018-07-15T12:43:41.131Z,4.95
2018-07-15T12:46:10.123Z,4.60
2018-07-15T12:48:39.433Z,4.45
2018-07-15T12:51:08.440Z,4.92
2018-07-15T12:53:40.150Z,5.33
2018-07-15T12:56:09.483Z,4.87
2018-07-15T12:58:39.169Z,5.15
2018-07-15T13:01:10.943Z,5.45
2018-07-15T13:03:44.392Z,4.42
2018-07-15T13:06:15.417Z,5.10
2018-07-15T13:08:45.142Z,4.72
2018-07-15T13:11:14.608Z,4.87
2018-07-15T13:13:44.021Z,5.22
2018-07-15T13:16:12.956Z,5.20
2018-07-15T13:18:44.948Z,5.40
2018-07-15T13:21:17.159Z,5.20
2018-07-15T13:23:51.980Z,5.22
2018-07-15T13:26:21.473Z,5.17
2018-07-15T13:28:51.905Z,5.12
2018-07-15T13:31:21.820Z,5.37
2018-07-15T13:33:50.706Z,5.10
2018-07-15T13:36:20.288Z,5.58
2018-07-15T13:38:50.241Z,6.12
2018-07-15T13:41:21.609Z,6.20
2018-07-15T13:43:51.337Z,7.78
2018-07-15T13:46:20.561Z,5.45
2018-07-15T13:48:50.218Z,5.97
2018-07-15T13:51:19.752Z,6.05
2018-07-15T13:53:49.502Z,6.35
2018-07-15T13:56:20.826Z,5.92
2018-07-15T13:58:51.747Z,5.60
2018-07-15T14:01:22.505Z,5.80
2018-07-15T14:03:52.592Z,5.83
2018-07-15T14:06:22.022Z,4.85
2018-07-15T14:08:51.253Z,5.60
2018-07-15T14:11:20.695Z,5.85
2018-07-15T14:13:51.217Z,5.37
2018-07-15T14:16:21.127Z,5.90
2018-07-15T14:18:50.720Z,5.30
2018-07-15T14:21:19.848Z,5.83
2018-07-15T14:23:48.797Z,5.22
2018-07-15T14:26:17.795Z,5.55
2018-07-15T14:28:47.343Z,5.40
2018-07-15T14:31:16.839Z,5.58
2018-07-15T14:33:47.374Z,5.10
2018-07-15T14:36:16.877Z,5.50
2018-07-15T14:38:47.341Z,4.87
2018-07-15T14:41:17.459Z,5.00
2018-07-15T14:43:47.395Z,5.17
2018-07-15T14:46:16.912Z,5.25
2018-07-15T14:48:46.420Z,5.30
2018-07-15T14:51:16.198Z,5.10
2018-07-15T14:53:51.425Z,5.53
2018-07-15T14:56:21.234Z,5.00
2018-07-15T14:58:51.396Z,4.85
2018-07-15T15:01:21.979Z,5.22
2018-07-15T15:03:50.947Z,5.47
2018-07-15T15:06:19.904Z,5.65
2018-07-15T15:08:49.995Z,5.42
2018-07-15T15:11:19.459Z,4.85
2018-07-15T15:13:49.111Z,5.00
2018-07-15T15:16:18.558Z,4.60
2018-07-15T15:18:48.878Z,5.15
2018-07-15T15:21:18.452Z,4.55
2018-07-15T15:23:48.327Z,4.95
2018-07-15T15:26:17.425Z,4.67
2018-07-15T15:28:49.949Z,4.83
2018-07-15T15:31:20.808Z,4.65
2018-07-15T15:33:49.742Z,4.65
2018-07-15T15:36:19.357Z,5.28
2018-07-15T15:38:48.953Z,5.47
2018-07-15T15:41:18.367Z,5.37
2018-07-15T15:43:48.776Z,5.55
2018-07-15T15:46:22.301Z,12.00
2018-07-15T15:48:52.088Z,7.40
2018-07-15T15:51:25.049Z,7.92
2018-07-15T15:53:55.617Z,7.45
2018-07-15T15:56:26.289Z,9.05
2018-07-15T15:58:56.832Z,13.90
2018-07-15T16:01:27.638Z,10.18
2018-07-15T16:04:16.701Z,8.55
2018-07-15T16:06:47.680Z,5.08
2018-07-15T16:09:18.441Z,4.80
2018-07-15T16:11:48.785Z,3.60
2018-07-15T16:14:25.675Z,4.03
2018-07-15T16:16:55.538Z,3.90
2018-07-15T16:19:24.950Z,5.00
2018-07-15T16:21:54.299Z,6.78
2018-07-15T16:24:23.668Z,4.10
2018-07-15T16:26:54.928Z,3.60
2018-07-15T16:29:29.705Z,6.87
2018-07-15T16:31:58.713Z,7.90
2018-07-15T16:34:27.927Z,5.92
2018-07-15T16:36:57.234Z,5.65
2018-07-15T16:39:26.603Z,6.12
2018-07-15T16:41:56.248Z,5.00
2018-07-15T16:44:28.351Z,6.28
2018-07-15T16:47:00.750Z,3.85
2018-07-15T16:49:30.893Z,3.42
2018-07-15T16:52:00.291Z,3.42
2018-07-15T16:54:29.948Z,3.10
2018-07-15T16:56:59.020Z,4.17
2018-07-15T16:59:28.892Z,3.52
2018-07-15T17:01:58.443Z,4.50
2018-07-15T17:04:28.265Z,3.85
2018-07-15T17:06:59.369Z,3.22
2018-07-15T17:09:30.519Z,3.60
2018-07-15T17:12:00.675Z,4.62
2018-07-15T17:14:30.489Z,3.20
2018-07-15T17:16:59.713Z,3.42
2018-07-15T17:19:35.973Z,3.30
2018-07-15T17:22:05.321Z,2.80
2018-07-15T17:24:34.374Z,3.40
2018-07-15T17:27:03.473Z,9.65
2018-07-15T17:29:33.394Z,6.62
2018-07-15T17:32:06.208Z,8.13
2018-07-15T17:34:36.380Z,7.17
2018-07-15T17:37:05.688Z,5.08
2018-07-15T17:39:35.439Z,3.52
2018-07-15T17:42:04.936Z,3.00
2018-07-15T17:44:34.070Z,4.12
2018-07-15T17:47:03.531Z,3.02
2018-07-15T17:49:35.332Z,3.42
2018-07-15T17:52:05.068Z,3.40
2018-07-15T17:54:34.366Z,3.05
2018-07-15T17:57:03.665Z,3.10
2018-07-15T17:59:33.139Z,3.02
2018-07-15T18:02:02.452Z,3.20
2018-07-15T18:04:33.280Z,2.92
2018-07-15T18:07:03.972Z,3.00
2018-07-15T18:09:34.776Z,3.30
2018-07-15T18:12:06.486Z,2.98
2018-07-15T18:14:36.033Z,3.20
2018-07-15T18:17:05.267Z,3.50
2018-07-15T18:19:34.333Z,3.35
2018-07-15T18:22:03.508Z,3.20
2018-07-15T18:24:33.053Z,3.25
2018-07-15T18:27:04.394Z,3.40
2018-07-15T18:29:35.378Z,3.30
2018-07-15T18:32:04.396Z,3.27
2018-07-15T18:34:34.402Z,2.92
2018-07-15T18:37:04.095Z,2.72
2018-07-15T18:39:33.308Z,3.50
2018-07-15T18:42:03.848Z,3.70
2018-07-15T18:44:33.453Z,2.90
2018-07-15T18:47:03.692Z,3.20
2018-07-15T18:49:33.299Z,3.10
2018-07-15T18:52:03.041Z,3.55
2018-07-15T18:54:32.411Z,3.00
2018-07-15T18:57:01.783Z,4.30
2018-07-15T18:59:31.105Z,3.47
2018-07-15T19:02:02.412Z,2.98
2018-07-15T19:04:32.483Z,3.25
2018-07-15T19:07:02.299Z,3.22
2018-07-15T19:09:32.451Z,3.98
2018-07-15T19:12:01.462Z,3.67
2018-07-15T19:14:30.601Z,3.40
2018-07-15T19:16:59.486Z,3.30
2018-07-15T19:19:29.390Z,3.22
2018-07-15T19:21:58.584Z,3.60
2018-07-15T19:24:28.580Z,3.60
2018-07-15T19:26:57.976Z,3.35
2018-07-15T19:29:27.274Z,3.27
2018-07-15T19:31:56.577Z,3.40
2018-07-15T19:34:25.461Z,3.60
2018-07-15T19:36:55.487Z,4.08
2018-07-15T19:39:27.030Z,3.98
2018-07-15T19:41:56.748Z,3.95
2018-07-15T19:44:26.228Z,3.92
2018-07-15T19:46:55.688Z,3.70
2018-07-15T19:49:25.142Z,4.40
2018-07-15T19:51:54.277Z,3.70
2018-07-15T19:54:23.165Z,3.60
2018-07-15T19:56:52.550Z,3.80
2018-07-15T19:59:22.074Z,3.85
2018-07-15T20:01:51.718Z,3.77
2018-07-15T20:04:21.586Z,3.60
2018-07-15T20:06:51.187Z,3.87
2018-07-15T20:09:20.575Z,3.47
2018-07-15T20:11:49.400Z,3.50
2018-07-15T20:14:18.481Z,3.30
2018-07-15T20:16:49.970Z,3.02
2018-07-15T20:19:20.315Z,3.22
2018-07-15T20:21:49.439Z,3.67
2018-07-15T20:24:18.321Z,3.02
2018-07-15T20:26:47.533Z,3.37
2018-07-15T20:29:17.026Z,3.37
2018-07-15T20:31:46.187Z,3.75
2018-07-15T20:34:15.880Z,3.60
2018-07-15T20:36:48.836Z,3.20
2018-07-15T20:39:18.291Z,3.20
2018-07-15T20:41:47.455Z,3.22
2018-07-15T20:44:16.242Z,2.52
2018-07-15T20:46:52.703Z,3.60
2018-07-15T20:49:21.866Z,3.22
2018-07-15T20:51:50.947Z,3.15
2018-07-15T20:54:20.170Z,3.58
2018-07-15T20:56:49.141Z,3.15
2018-07-15T20:59:19.937Z,3.40
2018-07-15T21:01:49.313Z,3.02
2018-07-15T21:04:18.212Z,3.47
2018-07-15T21:06:47.256Z,3.25
2018-07-15T21:09:16.447Z,3.55
2018-07-15T21:11:45.874Z,4.03
2018-07-15T21:14:17.110Z,4.00
2018-07-15T21:16:46.900Z,3.50
2018-07-15T21:19:16.498Z,3.62
2018-07-15T21:21:46.043Z,3.90
2018-07-15T21:24:15.424Z,3.65
2018-07-15T21:26:44.517Z,3.90
2018-07-15T21:29:17.689Z,3.30
2018-07-15T21:31:48.243Z,3.75
2018-07-15T21:34:17.496Z,3.35
2018-07-15T21:36:46.689Z,3.95
2018-07-15T21:39:15.960Z,3.83
2018-07-15T21:41:44.785Z,3.98
2018-07-15T21:44:14.085Z,4.00
2018-07-15T21:46:44.492Z,3.52
2018-07-15T21:49:13.380Z,4.50
2018-07-15T21:51:42.699Z,3.80
2018-07-15T21:54:13.250Z,3.52
2018-07-15T21:56:47.262Z,3.92
2018-07-15T21:59:16.942Z,4.10
2018-07-15T22:01:49.966Z,3.65
2018-07-15T22:04:20.241Z,3.90
2018-07-15T22:07:00.241Z,3.80
2018-07-15T22:09:50.749Z,3.55
2018-07-15T22:12:25.117Z,4.10
2018-07-15T22:14:56.670Z,3.95
2018-07-15T22:17:27.064Z,3.92
2018-07-15T22:19:56.509Z,4.50
2018-07-15T22:22:25.679Z,3.85
2018-07-15T22:24:55.540Z,4.20
2018-07-15T22:27:24.593Z,3.90
2018-07-15T22:29:54.907Z,4.22
2018-07-15T22:32:26.119Z,4.50
2018-07-15T22:34:56.483Z,4.40
2018-07-15T22:37:25.376Z,4.42
2018-07-15T22:39:54.718Z,4.62
2018-07-15T22:42:24.554Z,4.90
2018-07-15T22:44:53.877Z,4.87
2018-07-15T22:47:22.865Z,4.85
2018-07-15T22:49:52.898Z,5.10
2018-07-15T22:52:25.460Z,5.17
2018-07-15T22:54:57.017Z,4.70
2018-07-15T22:57:25.906Z,4.47
2018-07-15T22:59:56.354Z,5.00
2018-07-15T23:02:25.436Z,5.08
2018-07-15T23:06:02.253Z,5.05
2018-07-15T23:08:33.068Z,5.00
2018-07-15T23:11:02.486Z,5.37
2018-07-15T23:13:32.109Z,4.87
2018-07-15T23:16:04.267Z,5.67
2018-07-15T23:18:34.566Z,4.72
2018-07-15T23:21:03.692Z,4.97
2018-07-15T23:23:35.128Z,4.42
2018-07-15T23:26:05.024Z,4.87
2018-07-15T23:28:33.891Z,5.03
2018-07-15T23:31:02.891Z,5.40
2018-07-15T23:33:32.075Z,4.73
2018-07-15T23:36:02.242Z,5.10
2018-07-15T23:38:31.360Z,5.62
2018-07-15T23:41:01.180Z,5.10
2018-07-15T23:43:30.132Z,4.70
2018-07-15T23:45:59.407Z,5.40
2018-07-15T23:48:28.599Z,5.00
2018-07-15T23:50:59.717Z,5.42
2018-07-15T23:53:28.880Z,4.63
2018-07-15T23:56:00.659Z,5.10
2018-07-15T23:58:30.374Z,5.10
